首页
METAR-TAF:

METAR-TAF

机场 :

Newberry, 密歇根州, 美国

纬度: 46-18-40N, 经度: 085-27-26W, 海拔: 265米

当前天气观测

该预报发布于34分钟前的18:35 UTC
风速17节,风向西转西北,有时为29节阵风
温度 -4°C
湿度 86%
气压 1012 hPa
能見度: 3.2公里
阴天层高于1600英尺
轻雾

METAR: KERY 181835Z AUTO 29017G29KT 2SM BR OVC016 M04/M06 A2987 RMK AO2 T10371058

时间: 14:09 (19:09 UTC)


TAF: 丢失

超过4000个机场的气象观测和天气预报(METAR&TAF报告)。

可查询的气象台以黄色和红色小点在地图上表示。

将鼠标移到小点上方,可查看气象台名称。

然后点击查看天气观测和预报。

如需切换地图:点击带黑十字的绿色按钮放大地图;点击带横线的绿色按钮缩小地图;或者点击绿色箭头查看邻近地区的地图。


METAR-TAF: